createdAt,value
2018-03-27T00:00:44.950Z,88.30
2018-03-27T00:03:13.878Z,88.20
2018-03-27T00:05:42.159Z,87.70
2018-03-27T00:08:10.331Z,87.70
2018-03-27T00:10:38.502Z,87.70
2018-03-27T00:13:06.689Z,88.20
2018-03-27T00:15:34.851Z,88.80
2018-03-27T00:18:03.034Z,88.60
2018-03-27T00:20:31.193Z,88.50
2018-03-27T00:22:59.364Z,88.60
2018-03-27T00:25:27.532Z,88.90
2018-03-27T00:28:14.109Z,89.00
2018-03-27T00:31:00.217Z,88.80
2018-03-27T00:33:47.018Z,88.50
2018-03-27T00:36:33.092Z,88.50
2018-03-27T00:39:19.215Z,88.80
2018-03-27T00:45:00.871Z,88.80
2018-03-27T00:47:29.048Z,89.20
2018-03-27T00:49:57.251Z,89.10
2018-03-27T00:52:25.455Z,88.80
2018-03-27T00:54:54.429Z,88.70
2018-03-27T00:57:22.640Z,88.60
2018-03-27T00:59:50.864Z,88.90
2018-03-27T01:02:19.040Z,89.10
2018-03-27T01:04:47.207Z,89.30
2018-03-27T01:07:15.380Z,89.40
2018-03-27T01:09:43.566Z,89.40
2018-03-27T01:12:11.764Z,89.50
2018-03-27T01:14:39.938Z,89.70
2018-03-27T01:17:08.104Z,89.80
2018-03-27T01:19:36.286Z,90.00
2018-03-27T01:22:04.454Z,90.20
2018-03-27T01:24:32.622Z,90.20
2018-03-27T01:27:00.808Z,90.20
2018-03-27T01:29:28.975Z,90.60
2018-03-27T01:31:57.144Z,90.20
2018-03-27T01:34:25.310Z,90.30
2018-03-27T01:36:53.486Z,90.30
2018-03-27T01:39:21.650Z,90.20
2018-03-27T01:41:49.823Z,90.20
2018-03-27T01:44:18.032Z,90.20
2018-03-27T01:46:46.215Z,90.50
2018-03-27T01:49:15.176Z,90.20
2018-03-27T01:51:43.366Z,90.20
2018-03-27T01:54:11.527Z,90.30
2018-03-27T01:56:39.702Z,90.40
2018-03-27T01:59:07.900Z,90.40
2018-03-27T02:01:36.075Z,90.50
2018-03-27T02:04:04.258Z,90.50
2018-03-27T02:06:33.223Z,90.50
2018-03-27T02:09:01.410Z,90.50
2018-03-27T02:11:35.118Z,90.60
2018-03-27T02:14:08.819Z,91.10
2018-03-27T02:16:42.564Z,90.70
2018-03-27T02:19:16.305Z,90.80
2018-03-27T02:21:43.922Z,90.80
2018-03-27T02:24:14.635Z,90.90
2018-03-27T02:26:43.605Z,90.90
2018-03-27T02:29:11.787Z,90.80
2018-03-27T02:31:39.978Z,90.80
2018-03-27T02:34:08.939Z,91.00
2018-03-27T02:36:37.133Z,90.90
2018-03-27T02:39:05.369Z,91.00
2018-03-27T02:41:33.566Z,91.00
2018-03-27T02:44:01.804Z,91.00
2018-03-27T02:46:30.014Z,91.00
2018-03-27T02:48:58.180Z,91.00
2018-03-27T02:51:26.390Z,91.10
2018-03-27T02:53:54.585Z,91.10
2018-03-27T02:56:23.530Z,91.20
2018-03-27T02:58:51.744Z,91.10
2018-03-27T03:01:20.720Z,91.50
2018-03-27T03:03:48.931Z,91.20
2018-03-27T03:06:17.120Z,91.20
2018-03-27T03:08:45.293Z,91.20
2018-03-27T03:11:13.487Z,91.30
2018-03-27T03:13:41.668Z,91.30
2018-03-27T03:16:09.840Z,91.30
2018-03-27T03:18:38.014Z,91.20
2018-03-27T03:21:06.248Z,91.10
2018-03-27T03:23:34.411Z,91.10
2018-03-27T03:26:03.396Z,91.30
2018-03-27T03:28:31.570Z,91.30
2018-03-27T03:30:59.763Z,91.30
2018-03-27T03:33:28.700Z,91.30
2018-03-27T03:35:56.912Z,91.30
2018-03-27T03:38:25.086Z,91.40
2018-03-27T03:40:53.287Z,91.40
2018-03-27T03:43:22.223Z,91.50
2018-03-27T03:45:50.405Z,91.50
2018-03-27T03:48:18.605Z,91.50
2018-03-27T03:50:46.788Z,91.50
2018-03-27T03:53:15.742Z,91.60
2018-03-27T03:55:44.704Z,91.90
2018-03-27T03:58:12.875Z,91.80
2018-03-27T04:00:41.049Z,91.90
2018-03-27T04:03:09.324Z,91.90
2018-03-27T04:05:37.520Z,91.80
2018-03-27T04:08:05.739Z,91.80
2018-03-27T04:10:33.913Z,91.70
2018-03-27T04:13:02.094Z,91.80
2018-03-27T04:15:31.040Z,92.00
2018-03-27T04:17:59.251Z,91.90
2018-03-27T04:20:27.452Z,92.00
2018-03-27T04:22:56.401Z,92.20
2018-03-27T04:25:24.605Z,92.10
2018-03-27T04:27:53.560Z,92.50
2018-03-27T04:30:21.737Z,92.50
2018-03-27T04:32:49.912Z,92.50
2018-03-27T04:35:18.093Z,92.40
2018-03-27T04:37:46.303Z,92.40
2018-03-27T04:40:15.238Z,92.50
2018-03-27T04:42:43.437Z,92.50
2018-03-27T04:45:11.624Z,92.60
2018-03-27T04:47:39.799Z,92.60
2018-03-27T04:50:07.979Z,92.50
2018-03-27T04:52:36.159Z,92.50
2018-03-27T04:55:04.340Z,92.80
2018-03-27T04:57:33.279Z,92.40
2018-03-27T05:00:01.451Z,92.40
2018-03-27T05:02:29.640Z,92.30
2018-03-27T05:04:57.847Z,92.30
2018-03-27T05:07:26.030Z,92.30
2018-03-27T05:09:54.983Z,92.50
2018-03-27T05:12:23.173Z,92.50
2018-03-27T05:14:51.395Z,92.60
2018-03-27T05:17:19.574Z,92.20
2018-03-27T05:19:47.746Z,92.10
2018-03-27T05:22:15.942Z,92.10
2018-03-27T05:24:44.135Z,92.20
2018-03-27T05:27:12.311Z,92.20
2018-03-27T05:29:40.546Z,92.20
2018-03-27T05:32:08.771Z,92.20
2018-03-27T05:34:37.727Z,92.00
2018-03-27T05:37:05.921Z,92.00
2018-03-27T05:39:34.099Z,92.00
2018-03-27T05:42:03.033Z,91.80
2018-03-27T05:44:31.968Z,91.70
2018-03-27T05:47:00.159Z,91.70
2018-03-27T05:49:28.366Z,91.70
2018-03-27T05:51:56.547Z,91.60
2018-03-27T05:54:25.544Z,91.40
2018-03-27T05:56:54.528Z,91.40
2018-03-27T05:59:22.708Z,91.30
2018-03-27T06:01:50.882Z,91.40
2018-03-27T06:04:19.056Z,91.30
2018-03-27T06:06:47.251Z,91.10
2018-03-27T06:09:16.240Z,90.60
2018-03-27T06:11:45.194Z,90.60
2018-03-27T06:14:13.399Z,90.50
2018-03-27T06:16:42.346Z,90.50
2018-03-27T06:19:10.527Z,90.40
2018-03-27T06:21:38.706Z,90.50
2018-03-27T06:24:07.219Z,90.30
2018-03-27T06:26:35.391Z,90.50
2018-03-27T06:29:03.564Z,90.30
2018-03-27T06:31:32.531Z,90.10
2018-03-27T06:34:00.701Z,90.10
2018-03-27T06:36:28.898Z,90.20
2018-03-27T06:38:57.086Z,90.00
2018-03-27T06:41:26.040Z,90.40
2018-03-27T06:43:54.215Z,90.40
2018-03-27T06:46:22.397Z,90.50
2018-03-27T06:48:50.578Z,90.20
2018-03-27T06:51:18.800Z,89.20
2018-03-27T06:53:47.078Z,88.60
2018-03-27T06:56:15.263Z,88.60
2018-03-27T06:58:43.431Z,88.20
2018-03-27T07:01:11.602Z,88.00
2018-03-27T07:03:39.810Z,87.90
2018-03-27T07:06:08.006Z,88.00
2018-03-27T07:08:36.239Z,87.90
2018-03-27T07:11:05.182Z,88.00
2018-03-27T07:13:33.374Z,87.90
2018-03-27T07:16:02.327Z,88.00
2018-03-27T07:18:30.520Z,87.90
2018-03-27T07:20:58.710Z,87.80
2018-03-27T07:23:27.671Z,87.10
2018-03-27T07:25:55.843Z,87.00
2018-03-27T07:28:24.023Z,86.90
2018-03-27T07:30:52.203Z,87.10
2018-03-27T07:33:20.386Z,86.70
2018-03-27T07:35:48.579Z,86.90
2018-03-27T07:38:17.514Z,86.70
2018-03-27T07:40:45.676Z,86.60
2018-03-27T07:43:13.851Z,86.30
2018-03-27T07:45:42.059Z,86.30
2018-03-27T07:48:10.233Z,86.10
2018-03-27T07:50:38.394Z,86.00
2018-03-27T07:53:06.571Z,85.50
2018-03-27T07:55:34.747Z,85.20
2018-03-27T07:58:02.927Z,85.20
2018-03-27T08:00:31.111Z,84.70
2018-03-27T08:02:59.287Z,84.40
2018-03-27T08:05:27.490Z,84.00
2018-03-27T08:07:55.666Z,83.90
2018-03-27T08:10:23.842Z,83.80
2018-03-27T08:12:52.811Z,82.80
2018-03-27T08:15:21.013Z,82.70
2018-03-27T08:17:49.955Z,81.50
2018-03-27T08:20:18.122Z,81.40
2018-03-27T08:22:46.296Z,81.20
2018-03-27T08:25:14.498Z,80.40
2018-03-27T08:27:42.670Z,79.70
2018-03-27T08:30:10.863Z,79.20
2018-03-27T08:32:39.070Z,79.40
2018-03-27T08:35:08.002Z,77.90
2018-03-27T08:37:36.182Z,77.80
2018-03-27T08:40:04.372Z,78.10
2018-03-27T08:42:32.573Z,78.60
2018-03-27T08:45:01.527Z,78.40
2018-03-27T08:47:29.706Z,78.30
2018-03-27T08:49:57.869Z,77.40
2018-03-27T08:52:26.045Z,76.60
2018-03-27T08:54:54.253Z,75.40
2018-03-27T08:57:22.416Z,75.00
2018-03-27T08:59:50.646Z,75.10
2018-03-27T09:02:18.825Z,74.70
2018-03-27T09:04:47.003Z,74.40
2018-03-27T09:07:15.207Z,72.30
2018-03-27T09:09:43.423Z,70.80
2018-03-27T09:12:12.382Z,70.30
2018-03-27T09:14:40.564Z,70.30
2018-03-27T09:17:08.768Z,69.10
2018-03-27T09:19:37.744Z,68.20
2018-03-27T09:22:05.924Z,68.10
2018-03-27T09:24:34.876Z,67.40
2018-03-27T09:27:03.852Z,66.90
2018-03-27T09:29:32.030Z,66.80
2018-03-27T09:32:00.217Z,66.50
2018-03-27T09:34:28.400Z,66.10
2018-03-27T10:52:54.284Z,65.20
2018-03-27T10:55:23.534Z,51.20
2018-03-27T10:57:51.720Z,51.10
2018-03-27T11:00:19.907Z,49.60
2018-03-27T11:02:48.207Z,47.20
2018-03-27T11:05:17.155Z,43.20
2018-03-27T11:07:45.336Z,43.10
2018-03-27T11:10:13.515Z,41.70
2018-03-27T11:12:41.722Z,40.50
2018-03-27T11:15:10.710Z,38.40
2018-03-27T11:17:38.882Z,38.30
2018-03-27T11:20:07.852Z,36.30
2018-03-27T11:22:36.023Z,36.10
2018-03-27T11:25:04.199Z,35.60
2018-03-27T11:27:32.379Z,33.70
2018-03-27T11:30:00.552Z,33.60
2018-03-27T11:32:28.774Z,33.00
2018-03-27T11:34:57.716Z,33.60
2018-03-27T11:37:25.888Z,33.60
2018-03-27T11:39:54.069Z,32.90
2018-03-27T11:42:22.290Z,32.80
2018-03-27T11:44:51.234Z,34.40
2018-03-27T11:47:19.427Z,34.40
2018-03-27T11:49:47.612Z,35.00
2018-03-27T11:52:15.781Z,36.60
2018-03-27T11:54:44.015Z,37.90
2018-03-27T11:57:12.208Z,38.40
2018-03-27T11:59:40.388Z,39.60
2018-03-27T12:02:08.595Z,41.00
2018-03-27T12:04:37.583Z,43.30
2018-03-27T12:07:06.547Z,44.50
2018-03-27T12:09:34.719Z,44.40
2018-03-27T12:12:02.938Z,44.00
2018-03-27T12:14:31.891Z,40.20
2018-03-27T12:17:00.084Z,40.10
2018-03-27T12:19:28.262Z,37.10
2018-03-27T12:21:56.498Z,33.80
2018-03-27T12:24:24.687Z,31.30
2018-03-27T12:26:52.874Z,29.80
2018-03-27T12:29:21.049Z,28.00
2018-03-27T12:31:49.230Z,26.90
2018-03-27T12:34:17.414Z,25.90
2018-03-27T12:36:45.590Z,26.00
2018-03-27T12:39:14.550Z,27.40
2018-03-27T12:41:42.728Z,27.30
2018-03-27T12:44:10.914Z,28.30
2018-03-27T12:46:39.100Z,28.70
2018-03-27T12:49:07.299Z,30.00
2018-03-27T12:51:36.262Z,27.20
2018-03-27T12:54:04.484Z,27.10
2018-03-27T12:56:32.707Z,24.90
2018-03-27T12:59:00.910Z,23.80
2018-03-27T13:01:29.094Z,23.90
2018-03-27T13:03:58.050Z,22.40
2018-03-27T13:06:26.245Z,22.20
2018-03-27T13:08:54.451Z,22.10
2018-03-27T13:11:22.639Z,21.50
2018-03-27T13:13:50.812Z,22.50
2018-03-27T13:16:18.979Z,24.20
2018-03-27T13:18:47.175Z,27.30
2018-03-27T13:21:15.358Z,29.70
2018-03-27T13:23:43.535Z,32.00
2018-03-27T13:26:11.712Z,32.10
2018-03-27T13:28:39.899Z,32.40
2018-03-27T13:31:08.078Z,32.70
2018-03-27T13:33:36.257Z,32.30
2018-03-27T13:36:04.444Z,34.00
2018-03-27T13:38:33.388Z,35.60
2018-03-27T13:41:01.591Z,35.50
2018-03-27T13:43:29.784Z,36.60
2018-03-27T13:45:57.959Z,36.80
2018-03-27T13:48:26.969Z,32.40
2018-03-27T13:50:55.919Z,29.80
2018-03-27T13:53:24.106Z,29.70
2018-03-27T13:55:52.319Z,27.70
2018-03-27T13:58:20.505Z,27.90
2018-03-27T14:00:48.713Z,27.60
2018-03-27T14:03:16.912Z,27.00
2018-03-27T14:05:45.102Z,28.20
2018-03-27T14:08:14.046Z,29.20
2018-03-27T14:10:42.235Z,29.20
2018-03-27T14:13:10.422Z,29.20
2018-03-27T14:15:38.640Z,30.40
2018-03-27T14:18:06.846Z,32.80
2018-03-27T14:20:35.031Z,34.40
2018-03-27T14:23:03.217Z,36.10
2018-03-27T14:25:31.391Z,38.50
2018-03-27T14:27:59.583Z,40.40
2018-03-27T14:30:27.791Z,41.80
2018-03-27T14:32:56.002Z,43.20
2018-03-27T14:35:24.179Z,43.50
2018-03-27T14:37:52.381Z,44.70
2018-03-27T14:40:20.557Z,44.70
2018-03-27T14:42:48.734Z,45.50
2018-03-27T14:45:17.723Z,51.20
2018-03-27T14:47:45.917Z,51.10
2018-03-27T14:50:14.881Z,52.60
2018-03-27T14:52:43.074Z,52.50
2018-03-27T14:55:12.026Z,53.30
2018-03-27T14:57:40.210Z,53.00
2018-03-27T15:00:08.399Z,50.60
2018-03-27T15:02:36.586Z,45.40
2018-03-27T15:05:04.798Z,40.90
2018-03-27T15:07:32.971Z,37.10
2018-03-27T15:10:01.184Z,36.80
2018-03-27T15:12:29.334Z,38.10
2018-03-27T15:14:57.523Z,38.90
2018-03-27T15:17:25.703Z,40.60
2018-03-27T15:19:53.866Z,42.30
2018-03-27T15:22:22.087Z,44.20
2018-03-27T15:24:51.031Z,48.90
2018-03-27T15:27:19.211Z,48.80
2018-03-27T15:29:47.390Z,52.20
2018-03-27T15:32:15.612Z,54.60
2018-03-27T15:34:44.649Z,56.20
2018-03-27T15:37:12.859Z,56.20
2018-03-27T15:39:41.066Z,56.60
2018-03-27T15:42:10.095Z,58.50
2018-03-27T15:44:39.035Z,58.90
2018-03-27T15:47:07.255Z,58.90
2018-03-27T15:49:35.431Z,59.30
2018-03-27T15:52:03.630Z,57.20
2018-03-27T15:54:31.808Z,56.40
2018-03-27T15:56:59.993Z,58.20
2018-03-27T15:59:28.168Z,59.00
2018-03-27T16:01:56.353Z,59.50
2018-03-27T16:04:24.558Z,59.90
2018-03-27T16:06:52.739Z,61.30
2018-03-27T16:09:20.922Z,61.60
2018-03-27T16:11:49.097Z,61.80
2018-03-27T16:14:17.341Z,62.70
2018-03-27T16:16:46.302Z,62.90
2018-03-27T16:19:14.506Z,62.80
2018-03-27T16:21:43.449Z,60.30
2018-03-27T16:24:11.650Z,60.20
2018-03-27T16:26:39.831Z,59.30
2018-03-27T16:29:08.030Z,59.30
2018-03-27T16:31:37.011Z,59.10
2018-03-27T16:34:06.036Z,59.60
2018-03-27T16:36:35.013Z,59.80
2018-03-27T16:39:04.026Z,60.30
2018-03-27T16:41:32.206Z,60.20
2018-03-27T16:44:00.675Z,60.30
2018-03-27T16:46:28.978Z,60.40
2018-03-27T16:48:57.158Z,61.10
2018-03-27T16:51:25.329Z,62.00
2018-03-27T16:53:53.507Z,63.10
2018-03-27T16:56:21.699Z,64.20
2018-03-27T16:58:49.873Z,65.20
2018-03-27T17:01:18.088Z,66.50
2018-03-27T17:03:47.033Z,69.00
2018-03-27T17:06:15.246Z,68.90
2018-03-27T17:08:44.203Z,72.40
2018-03-27T17:11:12.381Z,73.40
2018-03-27T17:13:40.639Z,75.20
2018-03-27T17:16:08.872Z,74.20
2018-03-27T17:18:37.033Z,73.20
2018-03-27T17:21:05.261Z,73.60
2018-03-27T17:23:33.450Z,73.80
2018-03-27T17:26:01.656Z,73.90
2018-03-27T17:28:29.829Z,74.60
2018-03-27T17:30:58.014Z,75.30
2018-03-27T17:33:26.959Z,78.10
2018-03-27T17:35:55.138Z,77.40
2018-03-27T17:38:23.322Z,78.30
2018-03-27T17:40:51.499Z,79.10
2018-03-27T17:43:19.684Z,79.30
2018-03-27T17:45:47.872Z,80.00
2018-03-27T17:48:16.074Z,80.40
2018-03-27T17:50:45.040Z,81.10
2018-03-27T17:53:13.261Z,81.00
2018-03-27T17:55:41.443Z,81.10
2018-03-27T17:58:09.619Z,81.10
2018-03-27T18:00:37.808Z,81.50
2018-03-27T18:03:06.019Z,81.00
2018-03-27T18:05:34.201Z,81.30
2018-03-27T18:08:03.147Z,81.90
2018-03-27T18:10:31.336Z,81.80
2018-03-27T18:12:59.516Z,82.30
2018-03-27T18:15:27.696Z,83.10
2018-03-27T18:17:55.870Z,83.70
2018-03-27T18:20:24.046Z,84.10
2018-03-27T18:22:52.237Z,84.50
2018-03-27T18:25:21.184Z,85.20
2018-03-27T18:27:49.385Z,85.20
2018-03-27T18:30:17.572Z,85.60
2018-03-27T18:32:45.790Z,86.50
2018-03-27T18:35:13.957Z,87.90
2018-03-27T18:37:42.159Z,88.80
2018-03-27T18:40:10.351Z,89.30
2018-03-27T18:42:38.543Z,89.70
2018-03-27T18:45:06.738Z,89.80
2018-03-27T18:47:35.673Z,90.50
2018-03-27T18:50:03.843Z,90.40
2018-03-27T18:52:32.021Z,90.70
2018-03-27T18:55:00.222Z,91.00
2018-03-27T18:57:28.410Z,91.10
2018-03-27T18:59:57.533Z,91.40
2018-03-27T19:02:26.492Z,91.80
2018-03-27T19:04:54.668Z,91.80
2018-03-27T19:07:22.835Z,92.00
2018-03-27T19:09:51.032Z,92.40
2018-03-27T19:12:19.218Z,93.00
2018-03-27T19:14:48.173Z,93.20
2018-03-27T19:17:16.378Z,93.20
2018-03-27T19:19:45.333Z,93.20
2018-03-27T19:22:13.599Z,93.20
2018-03-27T19:24:41.773Z,93.10
2018-03-27T19:27:09.974Z,92.30
2018-03-27T19:29:38.146Z,91.90
2018-03-27T19:32:06.306Z,91.80
2018-03-27T19:34:34.489Z,91.70
2018-03-27T19:37:02.680Z,91.60
2018-03-27T19:39:30.846Z,91.50
2018-03-27T19:41:59.030Z,91.30
2018-03-27T19:44:27.246Z,91.40
2018-03-27T19:46:55.427Z,91.40
2018-03-27T19:49:23.606Z,91.40
2018-03-27T19:51:51.774Z,91.40
2018-03-27T19:54:19.956Z,91.30
2018-03-27T19:56:48.124Z,91.10
2018-03-27T19:59:16.299Z,91.10
2018-03-27T20:01:44.484Z,91.20
2018-03-27T20:04:12.674Z,91.10
2018-03-27T20:06:40.846Z,91.10
2018-03-27T20:09:09.027Z,91.20
2018-03-27T20:11:37.213Z,91.20
2018-03-27T20:14:05.391Z,91.10
2018-03-27T20:16:33.574Z,91.30
2018-03-27T20:19:01.760Z,91.40
2018-03-27T20:21:29.956Z,91.10
2018-03-27T20:23:58.895Z,91.00
2018-03-27T20:26:27.837Z,91.20
2018-03-27T20:28:56.782Z,91.50
2018-03-27T20:31:24.952Z,91.40
2018-03-27T20:33:53.884Z,91.70
2018-03-27T20:36:22.835Z,92.20
2018-03-27T20:38:51.012Z,92.20
2018-03-27T20:41:19.182Z,92.30
2018-03-27T20:43:47.362Z,92.20
2018-03-27T20:46:15.556Z,92.10
2018-03-27T20:48:43.753Z,92.20
2018-03-27T20:51:12.705Z,92.60
2018-03-27T20:53:40.879Z,92.50
2018-03-27T20:56:09.059Z,92.60
2018-03-27T20:58:37.264Z,92.70
2018-03-27T21:01:06.211Z,93.00
2018-03-27T21:03:34.396Z,93.00
2018-03-27T21:06:02.610Z,93.30
2018-03-27T21:08:31.588Z,93.10
2018-03-27T21:10:59.787Z,93.10
2018-03-27T21:13:28.720Z,93.20
2018-03-27T21:15:56.905Z,93.10
2018-03-27T21:18:25.086Z,93.20
2018-03-27T21:20:53.306Z,93.10
2018-03-27T21:23:22.250Z,93.10
2018-03-27T21:25:50.422Z,93.10
2018-03-27T21:28:18.603Z,93.20
2018-03-27T21:30:46.807Z,93.40
2018-03-27T21:33:15.762Z,93.50
2018-03-27T21:35:44.007Z,93.50
2018-03-27T21:38:12.183Z,93.60
2018-03-27T21:40:40.353Z,93.50
2018-03-27T21:43:08.540Z,93.60
2018-03-27T21:45:36.724Z,93.90
2018-03-27T21:48:04.904Z,93.60
2018-03-27T21:50:33.096Z,93.50
2018-03-27T21:53:01.273Z,93.60
2018-03-27T21:55:29.455Z,93.70
2018-03-27T21:57:57.667Z,93.70
2018-03-27T22:00:26.611Z,93.60
2018-03-27T22:02:54.796Z,93.60
2018-03-27T22:05:22.972Z,93.60
2018-03-27T22:07:51.123Z,93.60
2018-03-27T22:10:19.288Z,93.70
2018-03-27T22:12:47.451Z,93.70
2018-03-27T22:15:15.614Z,93.60
2018-03-27T22:17:43.751Z,93.60
2018-03-27T22:20:11.899Z,93.60
2018-03-27T22:22:40.050Z,93.70
2018-03-27T22:25:08.196Z,93.70
2018-03-27T22:27:37.095Z,93.80
2018-03-27T22:30:06.008Z,94.00
2018-03-27T22:32:34.161Z,93.90
2018-03-27T22:35:03.077Z,93.90
2018-03-27T22:37:31.207Z,93.90
2018-03-27T22:39:59.347Z,94.00
2018-03-27T22:42:27.499Z,94.10
2018-03-27T22:44:55.649Z,94.10
2018-03-27T22:47:24.556Z,94.00
2018-03-27T22:49:52.708Z,94.00
2018-03-27T22:52:21.606Z,94.10
2018-03-27T22:54:50.514Z,94.10
2018-03-27T22:57:18.648Z,94.10
2018-03-27T22:59:46.785Z,94.20
2018-03-27T23:02:14.943Z,94.10
2018-03-27T23:04:43.097Z,94.00
2018-03-27T23:07:11.305Z,94.10
2018-03-27T23:09:39.448Z,94.00
2018-03-27T23:12:07.627Z,94.10
2018-03-27T23:14:35.782Z,94.20
2018-03-27T23:17:04.696Z,94.10
2018-03-27T23:19:32.922Z,94.10
2018-03-27T23:22:01.073Z,94.20
2018-03-27T23:24:29.204Z,94.20
2018-03-27T23:26:58.154Z,94.40
2018-03-27T23:29:26.298Z,94.40
2018-03-27T23:31:54.618Z,94.50
2018-03-27T23:34:22.754Z,94.50
2018-03-27T23:36:50.890Z,94.40
2018-03-27T23:39:19.796Z,94.40
2018-03-27T23:41:48.019Z,94.40
2018-03-27T23:44:16.112Z,94.40
2018-03-27T23:46:44.334Z,94.30
2018-03-27T23:49:12.427Z,94.20
2018-03-27T23:51:40.598Z,94.10
2018-03-27T23:54:08.762Z,94.10
2018-03-27T23:56:36.892Z,94.10
2018-03-27T23:59:05.828Z,93.90
